sensor_id;sensor_type;location;lat;lon;timestamp;P1;durP1;ratioP1;P2;durP2;ratioP2
5543;SDS011;2795;47.652;13.128;2023-04-03T00:00:31;19.93;;;8.97;;
5543;SDS011;2795;47.652;13.128;2023-04-03T00:02:58;19.93;;;8.80;;
5543;SDS011;2795;47.652;13.128;2023-04-03T00:05:24;21.60;;;10.50;;
5543;SDS011;2795;47.652;13.128;2023-04-03T00:07:51;18.60;;;8.67;;
5543;SDS011;2795;47.652;13.128;2023-04-03T00:10:18;18.07;;;8.53;;
5543;SDS011;2795;47.652;13.128;2023-04-03T00:12:44;21.23;;;9.67;;
5543;SDS011;2795;47.652;13.128;2023-04-03T00:15:11;18.47;;;8.57;;
5543;SDS011;2795;47.652;13.128;2023-04-03T00:17:38;23.13;;;10.40;;
5543;SDS011;2795;47.652;13.128;2023-04-03T00:20:04;24.47;;;10.70;;
5543;SDS011;2795;47.652;13.128;2023-04-03T00:22:32;25.63;;;10.30;;
5543;SDS011;2795;47.652;13.128;2023-04-03T00:24:58;16.67;;;8.10;;
5543;SDS011;2795;47.652;13.128;2023-04-03T00:27:25;21.77;;;9.50;;
5543;SDS011;2795;47.652;13.128;2023-04-03T00:29:51;19.27;;;9.30;;
5543;SDS011;2795;47.652;13.128;2023-04-03T00:32:18;17.20;;;8.70;;
5543;SDS011;2795;47.652;13.128;2023-04-03T00:34:45;17.63;;;8.07;;
5543;SDS011;2795;47.652;13.128;2023-04-03T00:37:11;22.10;;;8.10;;
5543;SDS011;2795;47.652;13.128;2023-04-03T00:39:38;18.00;;;8.50;;
5543;SDS011;2795;47.652;13.128;2023-04-03T00:42:05;19.03;;;8.70;;
5543;SDS011;2795;47.652;13.128;2023-04-03T00:46:59;16.67;;;8.10;;
5543;SDS011;2795;47.652;13.128;2023-04-03T00:49:26;14.90;;;8.03;;
5543;SDS011;2795;47.652;13.128;2023-04-03T00:51:53;26.90;;;10.37;;
5543;SDS011;2795;47.652;13.128;2023-04-03T00:54:20;19.80;;;8.83;;
5543;SDS011;2795;47.652;13.128;2023-04-03T00:56:48;19.00;;;8.13;;
5543;SDS011;2795;47.652;13.128;2023-04-03T00:59:16;15.93;;;8.77;;
5543;SDS011;2795;47.652;13.128;2023-04-03T01:01:48;21.27;;;9.70;;
5543;SDS011;2795;47.652;13.128;2023-04-03T01:06:55;16.87;;;8.97;;
5543;SDS011;2795;47.652;13.128;2023-04-03T01:09:22;14.60;;;8.30;;
5543;SDS011;2795;47.652;13.128;2023-04-03T01:11:49;25.30;;;9.57;;
5543;SDS011;2795;47.652;13.128;2023-04-03T01:14:16;20.50;;;10.10;;
5543;SDS011;2795;47.652;13.128;2023-04-03T01:16:42;20.30;;;9.20;;
5543;SDS011;2795;47.652;13.128;2023-04-03T01:19:11;19.17;;;9.37;;
5543;SDS011;2795;47.652;13.128;2023-04-03T01:22:00;22.50;;;9.63;;
5543;SDS011;2795;47.652;13.128;2023-04-03T01:24:36;22.13;;;9.30;;
5543;SDS011;2795;47.652;13.128;2023-04-03T01:27:05;21.97;;;8.33;;
5543;SDS011;2795;47.652;13.128;2023-04-03T01:29:33;17.27;;;8.63;;
5543;SDS011;2795;47.652;13.128;2023-04-03T01:32:00;21.27;;;10.17;;
5543;SDS011;2795;47.652;13.128;2023-04-03T01:34:28;17.80;;;8.90;;
5543;SDS011;2795;47.652;13.128;2023-04-03T01:36:55;20.27;;;9.57;;
5543;SDS011;2795;47.652;13.128;2023-04-03T01:39:21;22.10;;;9.90;;
5543;SDS011;2795;47.652;13.128;2023-04-03T01:41:49;20.93;;;9.10;;
5543;SDS011;2795;47.652;13.128;2023-04-03T01:44:15;19.17;;;9.60;;
5543;SDS011;2795;47.652;13.128;2023-04-03T01:46:42;18.40;;;9.20;;
5543;SDS011;2795;47.652;13.128;2023-04-03T01:49:09;22.03;;;9.53;;
5543;SDS011;2795;47.652;13.128;2023-04-03T01:51:35;20.20;;;9.57;;
5543;SDS011;2795;47.652;13.128;2023-04-03T01:54:02;16.13;;;8.90;;
5543;SDS011;2795;47.652;13.128;2023-04-03T01:56:28;15.10;;;8.40;;
5543;SDS011;2795;47.652;13.128;2023-04-03T01:58:55;19.83;;;8.50;;
5543;SDS011;2795;47.652;13.128;2023-04-03T02:01:22;21.43;;;9.27;;
5543;SDS011;2795;47.652;13.128;2023-04-03T02:03:49;22.30;;;10.10;;
5543;SDS011;2795;47.652;13.128;2023-04-03T02:06:16;19.00;;;9.63;;
5543;SDS011;2795;47.652;13.128;2023-04-03T02:08:43;20.63;;;9.90;;
5543;SDS011;2795;47.652;13.128;2023-04-03T02:11:09;15.93;;;8.70;;
5543;SDS011;2795;47.652;13.128;2023-04-03T02:13:36;24.00;;;10.80;;
5543;SDS011;2795;47.652;13.128;2023-04-03T02:16:06;22.67;;;9.47;;
5543;SDS011;2795;47.652;13.128;2023-04-03T02:18:34;20.30;;;10.20;;
5543;SDS011;2795;47.652;13.128;2023-04-03T02:21:01;20.00;;;10.03;;
5543;SDS011;2795;47.652;13.128;2023-04-03T02:23:27;27.17;;;10.30;;
5543;SDS011;2795;47.652;13.128;2023-04-03T02:26:02;18.67;;;8.93;;
5543;SDS011;2795;47.652;13.128;2023-04-03T02:28:29;17.70;;;9.70;;
5543;SDS011;2795;47.652;13.128;2023-04-03T02:30:56;19.53;;;9.93;;
5543;SDS011;2795;47.652;13.128;2023-04-03T02:33:22;21.17;;;10.30;;
5543;SDS011;2795;47.652;13.128;2023-04-03T02:35:52;21.33;;;9.13;;
5543;SDS011;2795;47.652;13.128;2023-04-03T02:38:20;19.47;;;10.10;;
5543;SDS011;2795;47.652;13.128;2023-04-03T02:40:46;23.40;;;9.97;;
5543;SDS011;2795;47.652;13.128;2023-04-03T02:43:13;19.77;;;9.70;;
5543;SDS011;2795;47.652;13.128;2023-04-03T02:45:40;19.87;;;9.87;;
5543;SDS011;2795;47.652;13.128;2023-04-03T02:48:06;22.67;;;9.63;;
5543;SDS011;2795;47.652;13.128;2023-04-03T02:50:33;23.80;;;10.40;;
5543;SDS011;2795;47.652;13.128;2023-04-03T02:53:00;18.20;;;9.23;;
5543;SDS011;2795;47.652;13.128;2023-04-03T02:55:27;24.40;;;10.77;;
5543;SDS011;2795;47.652;13.128;2023-04-03T02:57:54;21.43;;;10.40;;
5543;SDS011;2795;47.652;13.128;2023-04-03T03:00:22;19.93;;;9.40;;
5543;SDS011;2795;47.652;13.128;2023-04-03T03:02:48;24.27;;;9.43;;
5543;SDS011;2795;47.652;13.128;2023-04-03T03:05:15;18.80;;;10.10;;
5543;SDS011;2795;47.652;13.128;2023-04-03T03:07:42;19.30;;;8.50;;
5543;SDS011;2795;47.652;13.128;2023-04-03T03:10:09;16.93;;;9.17;;
5543;SDS011;2795;47.652;13.128;2023-04-03T03:12:35;19.80;;;10.07;;
5543;SDS011;2795;47.652;13.128;2023-04-03T03:15:02;20.80;;;10.33;;
5543;SDS011;2795;47.652;13.128;2023-04-03T03:17:29;19.73;;;9.80;;
5543;SDS011;2795;47.652;13.128;2023-04-03T03:19:56;21.97;;;10.10;;
5543;SDS011;2795;47.652;13.128;2023-04-03T03:22:22;20.27;;;9.97;;
5543;SDS011;2795;47.652;13.128;2023-04-03T03:24:49;22.90;;;9.63;;
5543;SDS011;2795;47.652;13.128;2023-04-03T03:27:15;19.87;;;10.53;;
5543;SDS011;2795;47.652;13.128;2023-04-03T03:29:42;19.53;;;8.40;;
5543;SDS011;2795;47.652;13.128;2023-04-03T03:32:09;18.23;;;10.00;;
5543;SDS011;2795;47.652;13.128;2023-04-03T03:34:35;22.10;;;9.20;;
5543;SDS011;2795;47.652;13.128;2023-04-03T03:37:02;21.70;;;10.43;;
5543;SDS011;2795;47.652;13.128;2023-04-03T03:39:29;19.30;;;10.07;;
5543;SDS011;2795;47.652;13.128;2023-04-03T03:41:55;24.07;;;10.77;;
5543;SDS011;2795;47.652;13.128;2023-04-03T03:44:22;21.47;;;10.37;;
5543;SDS011;2795;47.652;13.128;2023-04-03T03:46:49;22.77;;;10.20;;
5543;SDS011;2795;47.652;13.128;2023-04-03T03:49:15;25.60;;;10.53;;
5543;SDS011;2795;47.652;13.128;2023-04-03T03:51:42;23.47;;;10.30;;
5543;SDS011;2795;47.652;13.128;2023-04-03T03:54:09;23.60;;;9.70;;
5543;SDS011;2795;47.652;13.128;2023-04-03T03:56:35;25.13;;;9.93;;
5543;SDS011;2795;47.652;13.128;2023-04-03T03:59:02;19.93;;;10.70;;
5543;SDS011;2795;47.652;13.128;2023-04-03T04:01:29;22.30;;;10.90;;
5543;SDS011;2795;47.652;13.128;2023-04-03T04:03:56;20.83;;;9.90;;
5543;SDS011;2795;47.652;13.128;2023-04-03T04:06:22;27.43;;;10.80;;
5543;SDS011;2795;47.652;13.128;2023-04-03T04:08:49;19.93;;;9.73;;
5543;SDS011;2795;47.652;13.128;2023-04-03T04:11:16;19.50;;;10.47;;
5543;SDS011;2795;47.652;13.128;2023-04-03T04:13:42;19.93;;;9.60;;
5543;SDS011;2795;47.652;13.128;2023-04-03T04:16:09;26.93;;;10.70;;
5543;SDS011;2795;47.652;13.128;2023-04-03T04:18:36;22.53;;;9.77;;
5543;SDS011;2795;47.652;13.128;2023-04-03T04:21:02;24.03;;;10.70;;
5543;SDS011;2795;47.652;13.128;2023-04-03T04:23:29;19.13;;;9.60;;
5543;SDS011;2795;47.652;13.128;2023-04-03T04:25:55;27.47;;;9.80;;
5543;SDS011;2795;47.652;13.128;2023-04-03T04:28:22;18.63;;;9.50;;
5543;SDS011;2795;47.652;13.128;2023-04-03T04:30:49;19.20;;;8.77;;
5543;SDS011;2795;47.652;13.128;2023-04-03T04:33:15;20.70;;;10.33;;
5543;SDS011;2795;47.652;13.128;2023-04-03T04:35:42;21.90;;;11.13;;
5543;SDS011;2795;47.652;13.128;2023-04-03T04:38:09;21.53;;;10.20;;
5543;SDS011;2795;47.652;13.128;2023-04-03T04:40:36;22.10;;;9.83;;
5543;SDS011;2795;47.652;13.128;2023-04-03T04:43:04;23.77;;;9.80;;
5543;SDS011;2795;47.652;13.128;2023-04-03T04:45:31;19.73;;;8.90;;
5543;SDS011;2795;47.652;13.128;2023-04-03T04:47:57;23.20;;;8.50;;
5543;SDS011;2795;47.652;13.128;2023-04-03T04:50:24;18.37;;;8.57;;
5543;SDS011;2795;47.652;13.128;2023-04-03T04:52:51;14.80;;;8.40;;
5543;SDS011;2795;47.652;13.128;2023-04-03T04:55:17;19.40;;;8.70;;
5543;SDS011;2795;47.652;13.128;2023-04-03T04:57:44;13.83;;;7.97;;
5543;SDS011;2795;47.652;13.128;2023-04-03T05:00:10;14.87;;;7.47;;
5543;SDS011;2795;47.652;13.128;2023-04-03T05:02:38;14.53;;;8.23;;
5543;SDS011;2795;47.652;13.128;2023-04-03T05:05:04;15.20;;;7.40;;
5543;SDS011;2795;47.652;13.128;2023-04-03T05:07:31;26.47;;;8.90;;
5543;SDS011;2795;47.652;13.128;2023-04-03T05:09:58;14.10;;;6.97;;
5543;SDS011;2795;47.652;13.128;2023-04-03T05:12:25;16.20;;;7.70;;
5543;SDS011;2795;47.652;13.128;2023-04-03T05:14:51;14.87;;;7.43;;
5543;SDS011;2795;47.652;13.128;2023-04-03T05:17:18;16.67;;;7.20;;
5543;SDS011;2795;47.652;13.128;2023-04-03T05:19:44;19.20;;;7.73;;
5543;SDS011;2795;47.652;13.128;2023-04-03T05:22:11;11.97;;;6.63;;
5543;SDS011;2795;47.652;13.128;2023-04-03T05:24:37;12.33;;;6.53;;
5543;SDS011;2795;47.652;13.128;2023-04-03T05:27:04;13.37;;;6.60;;
5543;SDS011;2795;47.652;13.128;2023-04-03T05:29:31;15.00;;;6.87;;
5543;SDS011;2795;47.652;13.128;2023-04-03T05:31:57;12.73;;;6.40;;
5543;SDS011;2795;47.652;13.128;2023-04-03T05:34:24;13.67;;;6.53;;
5543;SDS011;2795;47.652;13.128;2023-04-03T05:36:50;17.77;;;7.50;;
5543;SDS011;2795;47.652;13.128;2023-04-03T05:39:17;14.43;;;7.17;;
5543;SDS011;2795;47.652;13.128;2023-04-03T05:41:44;13.13;;;6.53;;
5543;SDS011;2795;47.652;13.128;2023-04-03T05:44:11;14.23;;;6.17;;
5543;SDS011;2795;47.652;13.128;2023-04-03T05:46:37;12.23;;;6.30;;
5543;SDS011;2795;47.652;13.128;2023-04-03T05:49:04;18.83;;;7.17;;
5543;SDS011;2795;47.652;13.128;2023-04-03T05:51:33;14.97;;;6.90;;
5543;SDS011;2795;47.652;13.128;2023-04-03T05:54:23;13.73;;;6.50;;
5543;SDS011;2795;47.652;13.128;2023-04-03T05:56:49;17.80;;;6.97;;
5543;SDS011;2795;47.652;13.128;2023-04-03T05:59:17;10.57;;;6.10;;
5543;SDS011;2795;47.652;13.128;2023-04-03T06:01:44;13.87;;;6.10;;
5543;SDS011;2795;47.652;13.128;2023-04-03T06:04:10;18.17;;;7.53;;
5543;SDS011;2795;47.652;13.128;2023-04-03T06:06:45;15.47;;;7.03;;
5543;SDS011;2795;47.652;13.128;2023-04-03T06:09:12;15.27;;;7.33;;
5543;SDS011;2795;47.652;13.128;2023-04-03T06:11:39;15.17;;;7.13;;
5543;SDS011;2795;47.652;13.128;2023-04-03T06:14:06;15.40;;;7.50;;
5543;SDS011;2795;47.652;13.128;2023-04-03T06:16:34;15.77;;;7.60;;
5543;SDS011;2795;47.652;13.128;2023-04-03T06:19:05;13.53;;;7.93;;
5543;SDS011;2795;47.652;13.128;2023-04-03T06:21:33;17.27;;;8.53;;
5543;SDS011;2795;47.652;13.128;2023-04-03T06:23:59;18.67;;;8.10;;
5543;SDS011;2795;47.652;13.128;2023-04-03T06:26:26;24.43;;;10.50;;
5543;SDS011;2795;47.652;13.128;2023-04-03T06:28:53;27.57;;;11.77;;
5543;SDS011;2795;47.652;13.128;2023-04-03T06:31:19;42.30;;;16.80;;
5543;SDS011;2795;47.652;13.128;2023-04-03T06:33:46;86.67;;;33.13;;
5543;SDS011;2795;47.652;13.128;2023-04-03T06:36:13;21.70;;;9.90;;
5543;SDS011;2795;47.652;13.128;2023-04-03T06:38:40;30.83;;;15.33;;
5543;SDS011;2795;47.652;13.128;2023-04-03T06:41:06;27.23;;;11.43;;
5543;SDS011;2795;47.652;13.128;2023-04-03T06:43:33;40.20;;;19.63;;
5543;SDS011;2795;47.652;13.128;2023-04-03T06:46:00;23.77;;;10.50;;
5543;SDS011;2795;47.652;13.128;2023-04-03T06:48:27;27.90;;;11.20;;
5543;SDS011;2795;47.652;13.128;2023-04-03T06:50:54;50.97;;;20.43;;
5543;SDS011;2795;47.652;13.128;2023-04-03T06:53:20;18.80;;;8.80;;
5543;SDS011;2795;47.652;13.128;2023-04-03T06:55:47;13.20;;;7.23;;
5543;SDS011;2795;47.652;13.128;2023-04-03T06:58:14;16.63;;;7.90;;
5543;SDS011;2795;47.652;13.128;2023-04-03T07:00:41;14.03;;;7.47;;
5543;SDS011;2795;47.652;13.128;2023-04-03T07:03:08;30.03;;;13.30;;
5543;SDS011;2795;47.652;13.128;2023-04-03T07:05:34;18.87;;;9.50;;
5543;SDS011;2795;47.652;13.128;2023-04-03T07:08:02;19.23;;;9.17;;
5543;SDS011;2795;47.652;13.128;2023-04-03T07:10:28;27.33;;;12.63;;
5543;SDS011;2795;47.652;13.128;2023-04-03T07:12:55;17.73;;;9.17;;
5543;SDS011;2795;47.652;13.128;2023-04-03T07:15:22;19.73;;;10.80;;
5543;SDS011;2795;47.652;13.128;2023-04-03T07:17:48;25.00;;;13.17;;
5543;SDS011;2795;47.652;13.128;2023-04-03T07:20:15;28.20;;;13.00;;
5543;SDS011;2795;47.652;13.128;2023-04-03T07:22:42;20.17;;;9.70;;
5543;SDS011;2795;47.652;13.128;2023-04-03T07:25:08;17.30;;;7.60;;
5543;SDS011;2795;47.652;13.128;2023-04-03T07:27:36;17.60;;;8.10;;
5543;SDS011;2795;47.652;13.128;2023-04-03T07:30:04;17.90;;;8.43;;
5543;SDS011;2795;47.652;13.128;2023-04-03T07:32:30;34.33;;;16.03;;
5543;SDS011;2795;47.652;13.128;2023-04-03T07:34:57;22.60;;;9.07;;
5543;SDS011;2795;47.652;13.128;2023-04-03T07:37:24;17.77;;;7.33;;
5543;SDS011;2795;47.652;13.128;2023-04-03T07:39:51;18.50;;;6.97;;
5543;SDS011;2795;47.652;13.128;2023-04-03T07:42:17;18.30;;;5.70;;
5543;SDS011;2795;47.652;13.128;2023-04-03T07:44:44;12.77;;;5.93;;
5543;SDS011;2795;47.652;13.128;2023-04-03T07:47:11;12.97;;;5.97;;
5543;SDS011;2795;47.652;13.128;2023-04-03T07:49:40;13.53;;;6.50;;
5543;SDS011;2795;47.652;13.128;2023-04-03T07:52:07;14.23;;;7.17;;
5543;SDS011;2795;47.652;13.128;2023-04-03T07:54:35;12.93;;;6.50;;
5543;SDS011;2795;47.652;13.128;2023-04-03T07:57:02;16.50;;;8.37;;
5543;SDS011;2795;47.652;13.128;2023-04-03T07:59:29;14.00;;;6.40;;
5543;SDS011;2795;47.652;13.128;2023-04-03T08:01:56;21.20;;;8.40;;
5543;SDS011;2795;47.652;13.128;2023-04-03T08:04:23;19.00;;;9.83;;
5543;SDS011;2795;47.652;13.128;2023-04-03T08:06:49;16.30;;;9.53;;
5543;SDS011;2795;47.652;13.128;2023-04-03T08:09:17;27.07;;;13.07;;
5543;SDS011;2795;47.652;13.128;2023-04-03T08:11:45;10.87;;;6.30;;
5543;SDS011;2795;47.652;13.128;2023-04-03T08:14:12;15.90;;;9.90;;
5543;SDS011;2795;47.652;13.128;2023-04-03T08:16:43;15.10;;;6.80;;
5543;SDS011;2795;47.652;13.128;2023-04-03T08:19:11;12.13;;;6.57;;
5543;SDS011;2795;47.652;13.128;2023-04-03T08:21:48;15.53;;;7.30;;
5543;SDS011;2795;47.652;13.128;2023-04-03T08:24:14;11.30;;;5.63;;
5543;SDS011;2795;47.652;13.128;2023-04-03T08:26:41;14.87;;;6.70;;
5543;SDS011;2795;47.652;13.128;2023-04-03T08:29:07;14.97;;;6.73;;
5543;SDS011;2795;47.652;13.128;2023-04-03T08:31:34;9.13;;;5.37;;
5543;SDS011;2795;47.652;13.128;2023-04-03T08:34:01;12.60;;;6.57;;
5543;SDS011;2795;47.652;13.128;2023-04-03T08:36:28;13.33;;;5.93;;
5543;SDS011;2795;47.652;13.128;2023-04-03T08:38:56;14.23;;;7.10;;
5543;SDS011;2795;47.652;13.128;2023-04-03T08:46:52;17.17;;;8.50;;
5543;SDS011;2795;47.652;13.128;2023-04-03T08:49:34;13.73;;;6.53;;
5543;SDS011;2795;47.652;13.128;2023-04-03T08:52:05;12.00;;;5.73;;
5543;SDS011;2795;47.652;13.128;2023-04-03T08:54:40;21.00;;;7.73;;
5543;SDS011;2795;47.652;13.128;2023-04-03T08:57:17;14.63;;;6.70;;
5543;SDS011;2795;47.652;13.128;2023-04-03T09:02:46;11.17;;;5.57;;
5543;SDS011;2795;47.652;13.128;2023-04-03T09:08:22;18.33;;;7.73;;
5543;SDS011;2795;47.652;13.128;2023-04-03T09:10:58;10.37;;;5.33;;
5543;SDS011;2795;47.652;13.128;2023-04-03T09:13:33;25.20;;;10.00;;
5543;SDS011;2795;47.652;13.128;2023-04-03T09:16:10;11.07;;;5.40;;
5543;SDS011;2795;47.652;13.128;2023-04-03T09:18:45;23.17;;;8.20;;
5543;SDS011;2795;47.652;13.128;2023-04-03T09:26:18;15.27;;;7.10;;
5543;SDS011;2795;47.652;13.128;2023-04-03T09:28:47;19.80;;;7.70;;
5543;SDS011;2795;47.652;13.128;2023-04-03T09:31:18;11.70;;;6.00;;
5543;SDS011;2795;47.652;13.128;2023-04-03T09:33:47;17.27;;;8.33;;
5543;SDS011;2795;47.652;13.128;2023-04-03T09:36:37;12.40;;;4.70;;
5543;SDS011;2795;47.652;13.128;2023-04-03T09:39:10;11.23;;;4.77;;
5543;SDS011;2795;47.652;13.128;2023-04-03T09:42:04;7.97;;;4.20;;
5543;SDS011;2795;47.652;13.128;2023-04-03T09:44:48;10.93;;;4.20;;
5543;SDS011;2795;47.652;13.128;2023-04-03T09:47:27;8.93;;;4.37;;
5543;SDS011;2795;47.652;13.128;2023-04-03T09:52:40;14.10;;;4.80;;
5543;SDS011;2795;47.652;13.128;2023-04-03T09:55:07;10.07;;;4.60;;
5543;SDS011;2795;47.652;13.128;2023-04-03T09:57:36;9.60;;;4.60;;
5543;SDS011;2795;47.652;13.128;2023-04-03T10:00:03;11.63;;;4.37;;
5543;SDS011;2795;47.652;13.128;2023-04-03T10:02:35;8.80;;;3.77;;
5543;SDS011;2795;47.652;13.128;2023-04-03T10:05:04;9.77;;;4.23;;
5543;SDS011;2795;47.652;13.128;2023-04-03T10:07:37;13.17;;;4.67;;
5543;SDS011;2795;47.652;13.128;2023-04-03T10:12:43;8.20;;;4.00;;
5543;SDS011;2795;47.652;13.128;2023-04-03T10:15:11;6.73;;;3.93;;
5543;SDS011;2795;47.652;13.128;2023-04-03T10:25:32;10.13;;;4.07;;
5543;SDS011;2795;47.652;13.128;2023-04-03T10:28:10;12.70;;;3.93;;
5543;SDS011;2795;47.652;13.128;2023-04-03T10:35:50;11.43;;;4.63;;
5543;SDS011;2795;47.652;13.128;2023-04-03T10:38:30;7.13;;;4.27;;
5543;SDS011;2795;47.652;13.128;2023-04-03T10:44:03;7.43;;;4.30;;
5543;SDS011;2795;47.652;13.128;2023-04-03T10:52:07;9.60;;;4.30;;
5543;SDS011;2795;47.652;13.128;2023-04-03T10:54:57;8.63;;;4.20;;
5543;SDS011;2795;47.652;13.128;2023-04-03T10:57:39;7.83;;;3.90;;
5543;SDS011;2795;47.652;13.128;2023-04-03T11:00:14;12.23;;;4.27;;
5543;SDS011;2795;47.652;13.128;2023-04-03T11:02:52;8.47;;;3.50;;
5543;SDS011;2795;47.652;13.128;2023-04-03T11:05:26;6.97;;;3.60;;
5543;SDS011;2795;47.652;13.128;2023-04-03T11:08:57;11.63;;;4.17;;
5543;SDS011;2795;47.652;13.128;2023-04-03T11:11:20;8.83;;;3.70;;
5543;SDS011;2795;47.652;13.128;2023-04-03T11:16:16;7.17;;;3.87;;
5543;SDS011;2795;47.652;13.128;2023-04-03T11:21:29;10.43;;;4.20;;
5543;SDS011;2795;47.652;13.128;2023-04-03T11:24:01;12.80;;;5.47;;
5543;SDS011;2795;47.652;13.128;2023-04-03T11:26:30;7.30;;;4.33;;
5543;SDS011;2795;47.652;13.128;2023-04-03T11:29:00;7.70;;;4.20;;
5543;SDS011;2795;47.652;13.128;2023-04-03T11:40:00;8.40;;;4.03;;
5543;SDS011;2795;47.652;13.128;2023-04-03T11:47:46;8.30;;;3.60;;
5543;SDS011;2795;47.652;13.128;2023-04-03T11:50:45;9.90;;;3.63;;
5543;SDS011;2795;47.652;13.128;2023-04-03T11:55:44;6.13;;;3.03;;
5543;SDS011;2795;47.652;13.128;2023-04-03T11:58:19;10.00;;;3.77;;
5543;SDS011;2795;47.652;13.128;2023-04-03T12:00:55;8.23;;;3.73;;
5543;SDS011;2795;47.652;13.128;2023-04-03T12:16:06;12.03;;;4.43;;
5543;SDS011;2795;47.652;13.128;2023-04-03T12:18:55;7.80;;;3.80;;
5543;SDS011;2795;47.652;13.128;2023-04-03T12:21:23;6.77;;;3.67;;
5543;SDS011;2795;47.652;13.128;2023-04-03T12:32:15;9.57;;;4.37;;
5543;SDS011;2795;47.652;13.128;2023-04-03T12:34:50;12.40;;;4.67;;
5543;SDS011;2795;47.652;13.128;2023-04-03T12:37:41;6.40;;;4.00;;
5543;SDS011;2795;47.652;13.128;2023-04-03T12:45:41;8.83;;;3.97;;
5543;SDS011;2795;47.652;13.128;2023-04-03T12:48:15;8.17;;;4.10;;
5543;SDS011;2795;47.652;13.128;2023-04-03T12:50:43;13.63;;;4.80;;
5543;SDS011;2795;47.652;13.128;2023-04-03T12:55:39;7.63;;;3.90;;
5543;SDS011;2795;47.652;13.128;2023-04-03T13:03:48;9.07;;;4.63;;
5543;SDS011;2795;47.652;13.128;2023-04-03T13:06:22;6.90;;;4.07;;
5543;SDS011;2795;47.652;13.128;2023-04-03T13:08:51;16.13;;;4.07;;
5543;SDS011;2795;47.652;13.128;2023-04-03T13:11:27;9.27;;;4.23;;
5543;SDS011;2795;47.652;13.128;2023-04-03T13:13:58;7.20;;;4.23;;
5543;SDS011;2795;47.652;13.128;2023-04-03T13:16:26;7.83;;;4.50;;
5543;SDS011;2795;47.652;13.128;2023-04-03T13:18:53;8.60;;;4.13;;
5543;SDS011;2795;47.652;13.128;2023-04-03T13:21:30;9.07;;;4.43;;
5543;SDS011;2795;47.652;13.128;2023-04-03T13:23:59;13.90;;;4.93;;
5543;SDS011;2795;47.652;13.128;2023-04-03T13:26:40;10.23;;;3.70;;
5543;SDS011;2795;47.652;13.128;2023-04-03T13:29:19;8.13;;;3.60;;
5543;SDS011;2795;47.652;13.128;2023-04-03T13:31:56;8.23;;;4.30;;
5543;SDS011;2795;47.652;13.128;2023-04-03T13:34:25;8.67;;;4.07;;
5543;SDS011;2795;47.652;13.128;2023-04-03T13:39:22;10.37;;;4.03;;
5543;SDS011;2795;47.652;13.128;2023-04-03T13:42:00;8.30;;;3.77;;
5543;SDS011;2795;47.652;13.128;2023-04-03T13:44:41;11.73;;;4.10;;
5543;SDS011;2795;47.652;13.128;2023-04-03T13:50:02;8.80;;;4.50;;
5543;SDS011;2795;47.652;13.128;2023-04-03T13:52:40;8.00;;;3.80;;
5543;SDS011;2795;47.652;13.128;2023-04-03T13:57:52;12.30;;;4.23;;
5543;SDS011;2795;47.652;13.128;2023-04-03T14:00:51;7.70;;;3.63;;
5543;SDS011;2795;47.652;13.128;2023-04-03T14:03:26;6.57;;;3.70;;
5543;SDS011;2795;47.652;13.128;2023-04-03T14:05:56;6.20;;;3.27;;
5543;SDS011;2795;47.652;13.128;2023-04-03T14:08:23;11.00;;;3.77;;
5543;SDS011;2795;47.652;13.128;2023-04-03T14:11:26;10.67;;;4.47;;
5543;SDS011;2795;47.652;13.128;2023-04-03T14:13:55;9.53;;;4.30;;
5543;SDS011;2795;47.652;13.128;2023-04-03T14:16:29;12.40;;;6.13;;
5543;SDS011;2795;47.652;13.128;2023-04-03T14:18:56;11.53;;;4.80;;
5543;SDS011;2795;47.652;13.128;2023-04-03T14:21:23;10.47;;;4.17;;
5543;SDS011;2795;47.652;13.128;2023-04-03T14:23:50;11.60;;;3.97;;
5543;SDS011;2795;47.652;13.128;2023-04-03T14:26:18;11.30;;;4.23;;
5543;SDS011;2795;47.652;13.128;2023-04-03T14:28:48;8.50;;;3.67;;
5543;SDS011;2795;47.652;13.128;2023-04-03T14:31:17;8.90;;;3.70;;
5543;SDS011;2795;47.652;13.128;2023-04-03T14:33:44;12.53;;;3.93;;
5543;SDS011;2795;47.652;13.128;2023-04-03T14:36:13;12.60;;;4.27;;
5543;SDS011;2795;47.652;13.128;2023-04-03T14:38:41;7.90;;;3.53;;
5543;SDS011;2795;47.652;13.128;2023-04-03T14:41:13;6.83;;;3.60;;
5543;SDS011;2795;47.652;13.128;2023-04-03T14:43:43;10.20;;;3.87;;
5543;SDS011;2795;47.652;13.128;2023-04-03T14:48:41;5.90;;;3.03;;
5543;SDS011;2795;47.652;13.128;2023-04-03T14:51:10;4.80;;;3.30;;
5543;SDS011;2795;47.652;13.128;2023-04-03T14:53:37;5.47;;;3.37;;
5543;SDS011;2795;47.652;13.128;2023-04-03T14:56:38;7.57;;;3.40;;
5543;SDS011;2795;47.652;13.128;2023-04-03T14:58:59;6.73;;;3.00;;
5543;SDS011;2795;47.652;13.128;2023-04-03T15:01:29;5.67;;;3.50;;
5543;SDS011;2795;47.652;13.128;2023-04-03T15:03:56;8.10;;;3.70;;
5543;SDS011;2795;47.652;13.128;2023-04-03T15:06:23;6.57;;;3.40;;
5543;SDS011;2795;47.652;13.128;2023-04-03T15:08:50;8.43;;;4.30;;
5543;SDS011;2795;47.652;13.128;2023-04-03T15:11:17;14.30;;;4.70;;
5543;SDS011;2795;47.652;13.128;2023-04-03T15:13:43;7.43;;;3.90;;
5543;SDS011;2795;47.652;13.128;2023-04-03T15:16:12;12.50;;;4.37;;
5543;SDS011;2795;47.652;13.128;2023-04-03T15:18:44;10.03;;;4.90;;
5543;SDS011;2795;47.652;13.128;2023-04-03T15:21:11;8.70;;;4.27;;
5543;SDS011;2795;47.652;13.128;2023-04-03T15:23:38;7.07;;;3.73;;
5543;SDS011;2795;47.652;13.128;2023-04-03T15:26:05;12.13;;;4.30;;
5543;SDS011;2795;47.652;13.128;2023-04-03T15:31:02;15.77;;;4.87;;
5543;SDS011;2795;47.652;13.128;2023-04-03T15:33:31;7.67;;;3.73;;
5543;SDS011;2795;47.652;13.128;2023-04-03T15:35:58;6.83;;;3.40;;
5543;SDS011;2795;47.652;13.128;2023-04-03T15:38:33;13.20;;;5.37;;
5543;SDS011;2795;47.652;13.128;2023-04-03T15:41:00;12.03;;;4.70;;
5543;SDS011;2795;47.652;13.128;2023-04-03T15:43:27;31.70;;;12.03;;
5543;SDS011;2795;47.652;13.128;2023-04-03T15:45:55;23.30;;;8.63;;
5543;SDS011;2795;47.652;13.128;2023-04-03T15:48:23;16.57;;;6.07;;
5543;SDS011;2795;47.652;13.128;2023-04-03T15:50:49;7.40;;;3.50;;
5543;SDS011;2795;47.652;13.128;2023-04-03T15:53:16;10.13;;;4.27;;
5543;SDS011;2795;47.652;13.128;2023-04-03T15:55:43;14.40;;;5.03;;
5543;SDS011;2795;47.652;13.128;2023-04-03T15:58:09;9.20;;;3.60;;
5543;SDS011;2795;47.652;13.128;2023-04-03T16:00:37;12.63;;;5.57;;
5543;SDS011;2795;47.652;13.128;2023-04-03T16:03:06;36.87;;;15.50;;
5543;SDS011;2795;47.652;13.128;2023-04-03T16:05:35;12.50;;;5.80;;
5543;SDS011;2795;47.652;13.128;2023-04-03T16:08:03;14.23;;;7.40;;
5543;SDS011;2795;47.652;13.128;2023-04-03T16:10:30;14.57;;;5.77;;
5543;SDS011;2795;47.652;13.128;2023-04-03T16:12:57;9.23;;;4.70;;
5543;SDS011;2795;47.652;13.128;2023-04-03T16:15:23;11.13;;;4.27;;
5543;SDS011;2795;47.652;13.128;2023-04-03T16:17:50;7.53;;;3.40;;
5543;SDS011;2795;47.652;13.128;2023-04-03T16:20:17;7.07;;;3.30;;
5543;SDS011;2795;47.652;13.128;2023-04-03T16:22:45;5.47;;;3.07;;
5543;SDS011;2795;47.652;13.128;2023-04-03T16:25:11;10.07;;;3.40;;
5543;SDS011;2795;47.652;13.128;2023-04-03T16:27:38;17.70;;;6.60;;
5543;SDS011;2795;47.652;13.128;2023-04-03T16:30:06;11.70;;;6.07;;
5543;SDS011;2795;47.652;13.128;2023-04-03T16:32:34;11.87;;;4.60;;
5543;SDS011;2795;47.652;13.128;2023-04-03T16:35:01;38.97;;;7.07;;
5543;SDS011;2795;47.652;13.128;2023-04-03T16:37:32;11.70;;;4.80;;
5543;SDS011;2795;47.652;13.128;2023-04-03T16:39:59;44.27;;;17.30;;
5543;SDS011;2795;47.652;13.128;2023-04-03T16:42:26;19.43;;;6.53;;
5543;SDS011;2795;47.652;13.128;2023-04-03T16:44:52;11.53;;;4.60;;
5543;SDS011;2795;47.652;13.128;2023-04-03T16:47:19;7.50;;;3.80;;
5543;SDS011;2795;47.652;13.128;2023-04-03T16:49:46;13.80;;;6.20;;
5543;SDS011;2795;47.652;13.128;2023-04-03T16:52:13;6.97;;;4.03;;
5543;SDS011;2795;47.652;13.128;2023-04-03T16:54:40;11.23;;;5.20;;
5543;SDS011;2795;47.652;13.128;2023-04-03T16:57:06;10.93;;;4.97;;